sensor_id;sensor_type;location;lat;lon;timestamp;temperature;humidity
39401;DHT22;54391;50.000;7.360;2023-04-25T00:00:34;6.00;94.10
39401;DHT22;54391;50.000;7.360;2023-04-25T00:03:01;6.00;94.90
39401;DHT22;54391;50.000;7.360;2023-04-25T00:05:28;5.90;93.90
39401;DHT22;54391;50.000;7.360;2023-04-25T00:07:59;6.00;95.40
39401;DHT22;54391;50.000;7.360;2023-04-25T00:10:27;5.90;96.00
39401;DHT22;54391;50.000;7.360;2023-04-25T00:12:55;5.90;95.40
39401;DHT22;54391;50.000;7.360;2023-04-25T00:15:24;5.90;95.70
39401;DHT22;54391;50.000;7.360;2023-04-25T00:22:47;5.90;95.40
39401;DHT22;54391;50.000;7.360;2023-04-25T00:25:14;5.40;95.10
39401;DHT22;54391;50.000;7.360;2023-04-25T00:27:42;5.90;94.10
39401;DHT22;54391;50.000;7.360;2023-04-25T00:30:10;5.90;95.20
39401;DHT22;54391;50.000;7.360;2023-04-25T00:32:39;5.90;95.40
39401;DHT22;54391;50.000;7.360;2023-04-25T00:35:06;5.90;95.50
39401;DHT22;54391;50.000;7.360;2023-04-25T00:37:34;5.90;96.20
39401;DHT22;54391;50.000;7.360;2023-04-25T00:42:32;6.00;96.20
39401;DHT22;54391;50.000;7.360;2023-04-25T00:44:59;5.90;94.90
39401;DHT22;54391;50.000;7.360;2023-04-25T00:47:28;5.90;94.50
39401;DHT22;54391;50.000;7.360;2023-04-25T00:49:57;5.90;94.60
39401;DHT22;54391;50.000;7.360;2023-04-25T00:52:24;5.90;94.60
39401;DHT22;54391;50.000;7.360;2023-04-25T00:54:51;5.80;94.80
39401;DHT22;54391;50.000;7.360;2023-04-25T00:57:18;5.80;93.70
39401;DHT22;54391;50.000;7.360;2023-04-25T00:59:46;5.80;95.00
39401;DHT22;54391;50.000;7.360;2023-04-25T01:04:41;5.80;95.40
39401;DHT22;54391;50.000;7.360;2023-04-25T01:07:10;5.70;94.00
39401;DHT22;54391;50.000;7.360;2023-04-25T01:09:37;5.80;94.60
39401;DHT22;54391;50.000;7.360;2023-04-25T01:14:32;5.80;94.80
39401;DHT22;54391;50.000;7.360;2023-04-25T01:19:28;5.80;95.30
39401;DHT22;54391;50.000;7.360;2023-04-25T01:21:58;5.80;95.10
39401;DHT22;54391;50.000;7.360;2023-04-25T01:24:26;5.80;95.00
39401;DHT22;54391;50.000;7.360;2023-04-25T01:26:55;5.80;95.40
39401;DHT22;54391;50.000;7.360;2023-04-25T01:31:51;5.80;94.00
39401;DHT22;54391;50.000;7.360;2023-04-25T01:36:47;5.70;94.10
39401;DHT22;54391;50.000;7.360;2023-04-25T01:39:17;5.70;92.70
39401;DHT22;54391;50.000;7.360;2023-04-25T01:41:45;6.00;91.10
39401;DHT22;54391;50.000;7.360;2023-04-25T01:49:08;5.80;92.60
39401;DHT22;54391;50.000;7.360;2023-04-25T01:51:35;5.80;91.40
39401;DHT22;54391;50.000;7.360;2023-04-25T01:54:04;5.70;91.80
39401;DHT22;54391;50.000;7.360;2023-04-25T01:56:33;5.80;93.10
39401;DHT22;54391;50.000;7.360;2023-04-25T01:59:03;5.70;93.20
39401;DHT22;54391;50.000;7.360;2023-04-25T02:02:00;5.70;92.30
39401;DHT22;54391;50.000;7.360;2023-04-25T02:04:31;5.70;93.30
39401;DHT22;54391;50.000;7.360;2023-04-25T02:06:58;5.70;93.20
39401;DHT22;54391;50.000;7.360;2023-04-25T02:12:08;5.70;93.30
39401;DHT22;54391;50.000;7.360;2023-04-25T02:15:02;5.70;92.60
39401;DHT22;54391;50.000;7.360;2023-04-25T02:17:55;5.70;92.70
39401;DHT22;54391;50.000;7.360;2023-04-25T02:20:23;5.70;92.30
39401;DHT22;54391;50.000;7.360;2023-04-25T02:25:20;5.70;93.80
39401;DHT22;54391;50.000;7.360;2023-04-25T02:27:48;5.60;93.40
39401;DHT22;54391;50.000;7.360;2023-04-25T02:30:17;5.60;94.20
39401;DHT22;54391;50.000;7.360;2023-04-25T02:32:45;5.60;94.50
39401;DHT22;54391;50.000;7.360;2023-04-25T02:35:13;5.70;95.00
39401;DHT22;54391;50.000;7.360;2023-04-25T02:37:41;5.70;94.40
39401;DHT22;54391;50.000;7.360;2023-04-25T02:40:09;5.70;93.50
39401;DHT22;54391;50.000;7.360;2023-04-25T02:45:07;5.60;94.00
39401;DHT22;54391;50.000;7.360;2023-04-25T02:50:01;5.60;93.60
39401;DHT22;54391;50.000;7.360;2023-04-25T02:52:29;5.60;94.20
39401;DHT22;54391;50.000;7.360;2023-04-25T02:55:04;5.60;93.70
39401;DHT22;54391;50.000;7.360;2023-04-25T02:57:33;5.50;94.70
39401;DHT22;54391;50.000;7.360;2023-04-25T03:00:00;5.50;94.60
39401;DHT22;54391;50.000;7.360;2023-04-25T03:02:29;5.50;94.60
39401;DHT22;54391;50.000;7.360;2023-04-25T03:07:24;5.60;94.80
39401;DHT22;54391;50.000;7.360;2023-04-25T03:09:52;5.60;93.80
39401;DHT22;54391;50.000;7.360;2023-04-25T03:12:19;5.60;92.70
39401;DHT22;54391;50.000;7.360;2023-04-25T03:14:46;5.60;91.40
39401;DHT22;54391;50.000;7.360;2023-04-25T03:19:43;5.50;90.90
39401;DHT22;54391;50.000;7.360;2023-04-25T03:22:11;5.40;91.40
39401;DHT22;54391;50.000;7.360;2023-04-25T03:24:38;5.40;91.80
39401;DHT22;54391;50.000;7.360;2023-04-25T03:27:06;5.40;92.40
39401;DHT22;54391;50.000;7.360;2023-04-25T03:29:33;5.50;93.40
39401;DHT22;54391;50.000;7.360;2023-04-25T03:32:03;5.50;92.40
39401;DHT22;54391;50.000;7.360;2023-04-25T03:36:59;5.50;91.20
39401;DHT22;54391;50.000;7.360;2023-04-25T03:41:58;5.50;91.80
39401;DHT22;54391;50.000;7.360;2023-04-25T03:44:27;5.60;90.80
39401;DHT22;54391;50.000;7.360;2023-04-25T03:46:55;5.50;91.40
39401;DHT22;54391;50.000;7.360;2023-04-25T03:49:24;5.50;92.00
39401;DHT22;54391;50.000;7.360;2023-04-25T03:51:59;5.50;92.20
39401;DHT22;54391;50.000;7.360;2023-04-25T03:54:34;5.50;92.60
39401;DHT22;54391;50.000;7.360;2023-04-25T03:57:05;5.50;92.40
39401;DHT22;54391;50.000;7.360;2023-04-25T03:59:35;5.50;92.10
39401;DHT22;54391;50.000;7.360;2023-04-25T04:02:03;5.60;92.20
39401;DHT22;54391;50.000;7.360;2023-04-25T04:07:02;5.60;91.20
39401;DHT22;54391;50.000;7.360;2023-04-25T04:09:33;5.60;91.70
39401;DHT22;54391;50.000;7.360;2023-04-25T04:12:05;5.60;92.90
39401;DHT22;54391;50.000;7.360;2023-04-25T04:14:33;5.60;91.40
39401;DHT22;54391;50.000;7.360;2023-04-25T04:17:00;7.10;92.10
39401;DHT22;54391;50.000;7.360;2023-04-25T04:19:28;5.60;90.50
39401;DHT22;54391;50.000;7.360;2023-04-25T04:22:05;5.60;90.80
39401;DHT22;54391;50.000;7.360;2023-04-25T04:24:32;5.60;89.30
39401;DHT22;54391;50.000;7.360;2023-04-25T04:27:03;5.60;87.60
39401;DHT22;54391;50.000;7.360;2023-04-25T04:32:29;5.40;87.90
39401;DHT22;54391;50.000;7.360;2023-04-25T04:34:56;5.40;86.80
39401;DHT22;54391;50.000;7.360;2023-04-25T04:37:26;5.30;86.20
39401;DHT22;54391;50.000;7.360;2023-04-25T04:39:53;5.30;86.60
39401;DHT22;54391;50.000;7.360;2023-04-25T04:42:26;5.20;85.80
39401;DHT22;54391;50.000;7.360;2023-04-25T04:45:13;5.20;85.80
39401;DHT22;54391;50.000;7.360;2023-04-25T04:47:49;5.10;84.10
39401;DHT22;54391;50.000;7.360;2023-04-25T04:50:36;5.10;84.40
39401;DHT22;54391;50.000;7.360;2023-04-25T04:53:32;5.10;85.20
39401;DHT22;54391;50.000;7.360;2023-04-25T04:56:21;5.10;83.90
39401;DHT22;54391;50.000;7.360;2023-04-25T05:01:22;5.00;75.90
39401;DHT22;54391;50.000;7.360;2023-04-25T05:06:59;5.00;78.30
39401;DHT22;54391;50.000;7.360;2023-04-25T05:09:29;5.10;76.10
39401;DHT22;54391;50.000;7.360;2023-04-25T05:12:02;5.00;74.70
39401;DHT22;54391;50.000;7.360;2023-04-25T05:14:55;5.10;76.50
39401;DHT22;54391;50.000;7.360;2023-04-25T05:17:42;5.10;78.00
39401;DHT22;54391;50.000;7.360;2023-04-25T05:20:25;5.00;77.40
39401;DHT22;54391;50.000;7.360;2023-04-25T05:25:42;2.60;75.30
39401;DHT22;54391;50.000;7.360;2023-04-25T05:28:17;5.30;77.10
39401;DHT22;54391;50.000;7.360;2023-04-25T05:30:56;5.20;75.00
39401;DHT22;54391;50.000;7.360;2023-04-25T05:33:38;5.20;74.80
39401;DHT22;54391;50.000;7.360;2023-04-25T05:36:06;5.10;71.50
39401;DHT22;54391;50.000;7.360;2023-04-25T05:38:34;5.10;71.90
39401;DHT22;54391;50.000;7.360;2023-04-25T05:41:08;5.10;74.40
39401;DHT22;54391;50.000;7.360;2023-04-25T05:43:42;4.90;71.30
39401;DHT22;54391;50.000;7.360;2023-04-25T05:46:35;4.90;73.40
39401;DHT22;54391;50.000;7.360;2023-04-25T05:49:32;4.80;73.20
39401;DHT22;54391;50.000;7.360;2023-04-25T05:52:09;4.70;75.70
39401;DHT22;54391;50.000;7.360;2023-04-25T05:54:39;4.60;77.90
39401;DHT22;54391;50.000;7.360;2023-04-25T05:57:08;4.60;78.50
39401;DHT22;54391;50.000;7.360;2023-04-25T06:02:03;4.60;78.60
39401;DHT22;54391;50.000;7.360;2023-04-25T06:04:33;4.60;77.50
39401;DHT22;54391;50.000;7.360;2023-04-25T06:07:00;4.50;76.50
39401;DHT22;54391;50.000;7.360;2023-04-25T06:09:28;4.50;78.90
39401;DHT22;54391;50.000;7.360;2023-04-25T06:11:56;4.60;80.20
39401;DHT22;54391;50.000;7.360;2023-04-25T06:14:24;4.60;78.90
39401;DHT22;54391;50.000;7.360;2023-04-25T06:19:20;4.60;77.30
39401;DHT22;54391;50.000;7.360;2023-04-25T06:21:47;4.70;77.00
39401;DHT22;54391;50.000;7.360;2023-04-25T06:24:16;4.80;77.70
39401;DHT22;54391;50.000;7.360;2023-04-25T06:26:43;4.90;74.80
39401;DHT22;54391;50.000;7.360;2023-04-25T06:31:40;4.90;72.70
39401;DHT22;54391;50.000;7.360;2023-04-25T06:34:07;4.90;72.50
39401;DHT22;54391;50.000;7.360;2023-04-25T06:36:38;5.50;72.70
39401;DHT22;54391;50.000;7.360;2023-04-25T06:39:09;5.00;70.70
39401;DHT22;54391;50.000;7.360;2023-04-25T06:41:36;5.20;71.30
39401;DHT22;54391;50.000;7.360;2023-04-25T06:44:06;5.20;70.30
39401;DHT22;54391;50.000;7.360;2023-04-25T06:46:40;5.20;69.70
39401;DHT22;54391;50.000;7.360;2023-04-25T06:49:08;5.30;68.30
39401;DHT22;54391;50.000;7.360;2023-04-25T06:54:03;5.20;66.10
39401;DHT22;54391;50.000;7.360;2023-04-25T06:56:39;5.10;64.20
39401;DHT22;54391;50.000;7.360;2023-04-25T06:59:14;5.10;66.90
39401;DHT22;54391;50.000;7.360;2023-04-25T07:01:45;5.30;68.20
39401;DHT22;54391;50.000;7.360;2023-04-25T07:04:18;5.50;64.70
39401;DHT22;54391;50.000;7.360;2023-04-25T07:09:22;5.50;55.20
39401;DHT22;54391;50.000;7.360;2023-04-25T07:11:50;5.50;54.60
39401;DHT22;54391;50.000;7.360;2023-04-25T07:14:18;5.60;53.70
39401;DHT22;54391;50.000;7.360;2023-04-25T07:16:47;5.60;54.90
39401;DHT22;54391;50.000;7.360;2023-04-25T07:21:41;5.70;53.30
39401;DHT22;54391;50.000;7.360;2023-04-25T07:24:10;5.70;50.50
39401;DHT22;54391;50.000;7.360;2023-04-25T07:26:41;5.70;51.90
39401;DHT22;54391;50.000;7.360;2023-04-25T07:29:35;5.70;51.30
39401;DHT22;54391;50.000;7.360;2023-04-25T07:32:05;5.50;50.40
39401;DHT22;54391;50.000;7.360;2023-04-25T07:34:32;5.50;51.00
39401;DHT22;54391;50.000;7.360;2023-04-25T07:42:05;5.70;54.60
39401;DHT22;54391;50.000;7.360;2023-04-25T07:44:34;5.50;53.10
39401;DHT22;54391;50.000;7.360;2023-04-25T07:47:07;5.30;51.80
39401;DHT22;54391;50.000;7.360;2023-04-25T07:49:35;5.40;53.40
39401;DHT22;54391;50.000;7.360;2023-04-25T07:52:03;5.20;53.50
39401;DHT22;54391;50.000;7.360;2023-04-25T07:54:31;5.40;52.80
39401;DHT22;54391;50.000;7.360;2023-04-25T07:57:03;5.30;51.60
39401;DHT22;54391;50.000;7.360;2023-04-25T07:59:33;5.20;55.50
39401;DHT22;54391;50.000;7.360;2023-04-25T08:02:03;5.20;53.80
39401;DHT22;54391;50.000;7.360;2023-04-25T08:04:32;5.30;54.20
39401;DHT22;54391;50.000;7.360;2023-04-25T08:07:04;5.30;52.20
39401;DHT22;54391;50.000;7.360;2023-04-25T08:12:12;5.40;52.00
39401;DHT22;54391;50.000;7.360;2023-04-25T08:17:08;5.40;51.40
39401;DHT22;54391;50.000;7.360;2023-04-25T08:19:41;5.40;53.10
39401;DHT22;54391;50.000;7.360;2023-04-25T08:24:53;5.30;51.60
39401;DHT22;54391;50.000;7.360;2023-04-25T08:29:50;5.10;52.50
39401;DHT22;54391;50.000;7.360;2023-04-25T08:32:19;5.10;53.30
39401;DHT22;54391;50.000;7.360;2023-04-25T08:35:04;5.20;56.70
39401;DHT22;54391;50.000;7.360;2023-04-25T08:37:31;5.30;57.40
39401;DHT22;54391;50.000;7.360;2023-04-25T08:40:12;5.20;50.80
39401;DHT22;54391;50.000;7.360;2023-04-25T08:45:23;5.40;45.60
39401;DHT22;54391;50.000;7.360;2023-04-25T08:47:52;5.50;49.00
39401;DHT22;54391;50.000;7.360;2023-04-25T08:50:22;5.80;47.10
39401;DHT22;54391;50.000;7.360;2023-04-25T08:52:53;6.30;44.70
39401;DHT22;54391;50.000;7.360;2023-04-25T08:55:21;7.00;37.90
39401;DHT22;54391;50.000;7.360;2023-04-25T08:57:54;7.90;34.80
39401;DHT22;54391;50.000;7.360;2023-04-25T09:00:23;8.50;24.00
39401;DHT22;54391;50.000;7.360;2023-04-25T09:02:50;8.40;20.40
39401;DHT22;54391;50.000;7.360;2023-04-25T09:05:18;8.40;24.90
39401;DHT22;54391;50.000;7.360;2023-04-25T09:07:47;8.30;23.50
39401;DHT22;54391;50.000;7.360;2023-04-25T09:12:42;7.50;26.70
39401;DHT22;54391;50.000;7.360;2023-04-25T09:15:11;7.30;28.60
39401;DHT22;54391;50.000;7.360;2023-04-25T09:17:55;7.20;30.80
39401;DHT22;54391;50.000;7.360;2023-04-25T09:20:23;7.30;33.00
39401;DHT22;54391;50.000;7.360;2023-04-25T09:23:03;7.50;30.00
39401;DHT22;54391;50.000;7.360;2023-04-25T09:25:36;7.70;31.60
39401;DHT22;54391;50.000;7.360;2023-04-25T09:28:06;7.60;26.20
39401;DHT22;54391;50.000;7.360;2023-04-25T09:30:35;7.60;28.10
39401;DHT22;54391;50.000;7.360;2023-04-25T09:33:12;7.50;30.00
39401;DHT22;54391;50.000;7.360;2023-04-25T09:35:44;7.40;31.20
39401;DHT22;54391;50.000;7.360;2023-04-25T09:38:21;7.30;27.70
39401;DHT22;54391;50.000;7.360;2023-04-25T09:40:58;7.10;28.80
39401;DHT22;54391;50.000;7.360;2023-04-25T09:43:39;6.80;28.90
39401;DHT22;54391;50.000;7.360;2023-04-25T09:46:09;6.70;30.30
39401;DHT22;54391;50.000;7.360;2023-04-25T09:48:40;6.60;32.20
39401;DHT22;54391;50.000;7.360;2023-04-25T09:51:14;6.70;32.00
39401;DHT22;54391;50.000;7.360;2023-04-25T09:53:46;6.90;29.70
39401;DHT22;54391;50.000;7.360;2023-04-25T09:56:27;6.90;29.60
39401;DHT22;54391;50.000;7.360;2023-04-25T09:58:57;7.00;30.50
39401;DHT22;54391;50.000;7.360;2023-04-25T10:01:26;7.10;31.30
39401;DHT22;54391;50.000;7.360;2023-04-25T10:04:09;7.10;27.00
39401;DHT22;54391;50.000;7.360;2023-04-25T10:06:57;7.10;25.60
39401;DHT22;54391;50.000;7.360;2023-04-25T10:09:29;7.20;26.20
39401;DHT22;54391;50.000;7.360;2023-04-25T10:12:00;7.20;23.60
39401;DHT22;54391;50.000;7.360;2023-04-25T10:14:29;7.40;24.90
39401;DHT22;54391;50.000;7.360;2023-04-25T10:16:57;7.40;21.70
39401;DHT22;54391;50.000;7.360;2023-04-25T10:19:25;7.20;21.30
39401;DHT22;54391;50.000;7.360;2023-04-25T10:21:58;7.50;19.90
39401;DHT22;54391;50.000;7.360;2023-04-25T10:24:29;7.50;21.50
39401;DHT22;54391;50.000;7.360;2023-04-25T10:26:57;7.40;19.30
39401;DHT22;54391;50.000;7.360;2023-04-25T10:29:25;7.50;20.30
39401;DHT22;54391;50.000;7.360;2023-04-25T10:31:53;7.50;21.40
39401;DHT22;54391;50.000;7.360;2023-04-25T10:34:25;7.60;16.30
39401;DHT22;54391;50.000;7.360;2023-04-25T10:37:04;7.50;18.80
39401;DHT22;54391;50.000;7.360;2023-04-25T10:39:34;7.50;17.50
39401;DHT22;54391;50.000;7.360;2023-04-25T10:42:02;7.40;19.00
39401;DHT22;54391;50.000;7.360;2023-04-25T10:44:31;7.30;19.90
39401;DHT22;54391;50.000;7.360;2023-04-25T10:47:00;7.10;20.20
39401;DHT22;54391;50.000;7.360;2023-04-25T10:49:30;7.10;20.80
39401;DHT22;54391;50.000;7.360;2023-04-25T10:52:24;7.00;21.00
39401;DHT22;54391;50.000;7.360;2023-04-25T10:54:54;7.00;20.00
39401;DHT22;54391;50.000;7.360;2023-04-25T10:57:34;7.00;22.80
39401;DHT22;54391;50.000;7.360;2023-04-25T11:00:07;6.90;22.20
39401;DHT22;54391;50.000;7.360;2023-04-25T11:02:44;7.10;21.40
39401;DHT22;54391;50.000;7.360;2023-04-25T11:05:27;7.30;22.60
39401;DHT22;54391;50.000;7.360;2023-04-25T11:08:01;7.40;22.30
39401;DHT22;54391;50.000;7.360;2023-04-25T11:10:31;7.40;20.80
39401;DHT22;54391;50.000;7.360;2023-04-25T11:13:00;7.50;14.50
39401;DHT22;54391;50.000;7.360;2023-04-25T11:15:28;7.60;13.60
39401;DHT22;54391;50.000;7.360;2023-04-25T11:17:55;7.70;16.00
39401;DHT22;54391;50.000;7.360;2023-04-25T11:20:25;7.70;14.20
39401;DHT22;54391;50.000;7.360;2023-04-25T11:22:57;7.90;14.10
39401;DHT22;54391;50.000;7.360;2023-04-25T11:25:25;7.90;15.60
39401;DHT22;54391;50.000;7.360;2023-04-25T11:27:55;8.10;14.00
39401;DHT22;54391;50.000;7.360;2023-04-25T11:30:24;8.20;15.30
39401;DHT22;54391;50.000;7.360;2023-04-25T11:32:54;8.10;11.10
39401;DHT22;54391;50.000;7.360;2023-04-25T11:35:22;8.00;12.20
39401;DHT22;54391;50.000;7.360;2023-04-25T11:37:51;8.10;11.70
39401;DHT22;54391;50.000;7.360;2023-04-25T11:42:47;8.50;12.40
39401;DHT22;54391;50.000;7.360;2023-04-25T11:45:15;8.70;11.10
39401;DHT22;54391;50.000;7.360;2023-04-25T11:47:44;9.00;8.90
39401;DHT22;54391;50.000;7.360;2023-04-25T11:50:12;9.00;8.50
39401;DHT22;54391;50.000;7.360;2023-04-25T11:52:41;8.90;5.80
39401;DHT22;54391;50.000;7.360;2023-04-25T11:55:09;8.90;6.20
39401;DHT22;54391;50.000;7.360;2023-04-25T11:57:38;9.20;5.30
39401;DHT22;54391;50.000;7.360;2023-04-25T12:00:09;9.20;2.60
39401;DHT22;54391;50.000;7.360;2023-04-25T12:02:42;9.10;4.30
39401;DHT22;54391;50.000;7.360;2023-04-25T12:05:10;9.00;4.70
39401;DHT22;54391;50.000;7.360;2023-04-25T12:07:37;9.00;5.40
39401;DHT22;54391;50.000;7.360;2023-04-25T12:10:05;8.90;4.00
39401;DHT22;54391;50.000;7.360;2023-04-25T12:12:34;8.80;7.70
39401;DHT22;54391;50.000;7.360;2023-04-25T12:15:09;8.70;6.70
39401;DHT22;54391;50.000;7.360;2023-04-25T12:17:38;8.90;6.40
39401;DHT22;54391;50.000;7.360;2023-04-25T12:20:13;9.10;3.40
39401;DHT22;54391;50.000;7.360;2023-04-25T12:22:41;9.40;3.60
39401;DHT22;54391;50.000;7.360;2023-04-25T12:25:11;9.60;5.80
39401;DHT22;54391;50.000;7.360;2023-04-25T12:27:40;9.70;4.20
39401;DHT22;54391;50.000;7.360;2023-04-25T12:30:10;9.70;2.80
39401;DHT22;54391;50.000;7.360;2023-04-25T12:32:37;9.60;2.30
39401;DHT22;54391;50.000;7.360;2023-04-25T12:35:05;9.60;5.60
39401;DHT22;54391;50.000;7.360;2023-04-25T12:37:34;10.10;6.60
39401;DHT22;54391;50.000;7.360;2023-04-25T12:40:02;10.50;1.20
39401;DHT22;54391;50.000;7.360;2023-04-25T12:44:58;10.00;1.00
39401;DHT22;54391;50.000;7.360;2023-04-25T12:47:25;9.80;1.00
39401;DHT22;54391;50.000;7.360;2023-04-25T12:52:20;9.50;1.50
39401;DHT22;54391;50.000;7.360;2023-04-25T12:54:49;9.40;1.00
39401;DHT22;54391;50.000;7.360;2023-04-25T12:57:16;9.60;1.00
39401;DHT22;54391;50.000;7.360;2023-04-25T13:02:11;9.80;1.00
39401;DHT22;54391;50.000;7.360;2023-04-25T13:04:38;9.60;1.50
39401;DHT22;54391;50.000;7.360;2023-04-25T13:07:05;9.50;1.00
39401;DHT22;54391;50.000;7.360;2023-04-25T13:12:01;9.40;1.00
39401;DHT22;54391;50.000;7.360;2023-04-25T13:14:30;9.50;1.50
39401;DHT22;54391;50.000;7.360;2023-04-25T13:16:57;12.20;1.00
39401;DHT22;54391;50.000;7.360;2023-04-25T13:19:24;9.70;1.00
39401;DHT22;54391;50.000;7.360;2023-04-25T13:21:51;9.40;1.00
39401;DHT22;54391;50.000;7.360;2023-04-25T13:24:19;9.30;1.00
39401;DHT22;54391;50.000;7.360;2023-04-25T13:26:46;9.40;1.00
39401;DHT22;54391;50.000;7.360;2023-04-25T13:29:15;9.30;1.00
39401;DHT22;54391;50.000;7.360;2023-04-25T13:31:42;9.30;1.50
39401;DHT22;54391;50.000;7.360;2023-04-25T13:34:10;9.30;1.00
39401;DHT22;54391;50.000;7.360;2023-04-25T13:36:38;9.40;1.00
39401;DHT22;54391;50.000;7.360;2023-04-25T13:41:33;9.40;1.00
39401;DHT22;54391;50.000;7.360;2023-04-25T13:44:00;9.50;1.00
39401;DHT22;54391;50.000;7.360;2023-04-25T13:46:29;9.60;1.00
39401;DHT22;54391;50.000;7.360;2023-04-25T13:48:57;9.40;1.00
39401;DHT22;54391;50.000;7.360;2023-04-25T13:51:24;9.40;1.00
39401;DHT22;54391;50.000;7.360;2023-04-25T13:53:52;9.10;1.00
39401;DHT22;54391;50.000;7.360;2023-04-25T13:58:47;8.90;1.00
39401;DHT22;54391;50.000;7.360;2023-04-25T14:01:15;8.90;1.00
39401;DHT22;54391;50.000;7.360;2023-04-25T14:03:44;8.90;1.00
39401;DHT22;54391;50.000;7.360;2023-04-25T14:06:12;8.90;1.00
39401;DHT22;54391;50.000;7.360;2023-04-25T14:08:39;9.00;1.00
39401;DHT22;54391;50.000;7.360;2023-04-25T14:11:08;8.90;1.00
39401;DHT22;54391;50.000;7.360;2023-04-25T14:13:35;8.70;1.00
39401;DHT22;54391;50.000;7.360;2023-04-25T14:16:03;8.70;1.00
39401;DHT22;54391;50.000;7.360;2023-04-25T14:20:59;9.00;1.00
39401;DHT22;54391;50.000;7.360;2023-04-25T14:23:27;9.00;1.00
39401;DHT22;54391;50.000;7.360;2023-04-25T14:28:21;9.20;1.00
39401;DHT22;54391;50.000;7.360;2023-04-25T14:30:49;9.10;1.00
39401;DHT22;54391;50.000;7.360;2023-04-25T14:33:17;9.20;1.00
39401;DHT22;54391;50.000;7.360;2023-04-25T14:35:44;9.30;1.00
39401;DHT22;54391;50.000;7.360;2023-04-25T14:38:13;9.40;1.00
39401;DHT22;54391;50.000;7.360;2023-04-25T14:43:08;9.20;1.00
39401;DHT22;54391;50.000;7.360;2023-04-25T14:48:03;8.90;1.00
39401;DHT22;54391;50.000;7.360;2023-04-25T14:50:30;8.80;1.00
39401;DHT22;54391;50.000;7.360;2023-04-25T14:52:58;8.20;1.00
39401;DHT22;54391;50.000;7.360;2023-04-25T14:55:29;8.30;1.60
39401;DHT22;54391;50.000;7.360;2023-04-25T15:00:24;8.10;3.30
39401;DHT22;54391;50.000;7.360;2023-04-25T15:07:47;7.90;4.50
39401;DHT22;54391;50.000;7.360;2023-04-25T15:12:44;7.70;5.00
39401;DHT22;54391;50.000;7.360;2023-04-25T15:15:12;7.60;4.30
39401;DHT22;54391;50.000;7.360;2023-04-25T15:17:40;7.50;5.20
39401;DHT22;54391;50.000;7.360;2023-04-25T15:20:09;7.60;4.80
39401;DHT22;54391;50.000;7.360;2023-04-25T15:22:37;7.60;6.40
39401;DHT22;54391;50.000;7.360;2023-04-25T15:25:05;7.60;6.70
39401;DHT22;54391;50.000;7.360;2023-04-25T15:27:33;7.70;8.50
39401;DHT22;54391;50.000;7.360;2023-04-25T15:30:06;7.70;7.10
39401;DHT22;54391;50.000;7.360;2023-04-25T15:32:36;8.10;3.70
39401;DHT22;54391;50.000;7.360;2023-04-25T15:35:05;7.60;2.60
39401;DHT22;54391;50.000;7.360;2023-04-25T15:37:33;7.70;2.40
39401;DHT22;54391;50.000;7.360;2023-04-25T15:40:02;7.70;3.40
39401;DHT22;54391;50.000;7.360;2023-04-25T15:42:34;7.90;3.80
39401;DHT22;54391;50.000;7.360;2023-04-25T15:47:32;8.10;1.10
39401;DHT22;54391;50.000;7.360;2023-04-25T15:50:00;8.10;1.30
39401;DHT22;54391;50.000;7.360;2023-04-25T15:52:28;8.20;1.00
39401;DHT22;54391;50.000;7.360;2023-04-25T15:54:56;8.30;1.40
39401;DHT22;54391;50.000;7.360;2023-04-25T15:59:51;8.30;1.00
39401;DHT22;54391;50.000;7.360;2023-04-25T16:02:18;7.90;1.00
39401;DHT22;54391;50.000;7.360;2023-04-25T16:04:47;8.10;1.00
39401;DHT22;54391;50.000;7.360;2023-04-25T16:07:14;8.00;1.00
39401;DHT22;54391;50.000;7.360;2023-04-25T16:12:10;7.70;1.00
39401;DHT22;54391;50.000;7.360;2023-04-25T16:14:37;7.80;1.00
39401;DHT22;54391;50.000;7.360;2023-04-25T16:19:32;7.80;1.00
39401;DHT22;54391;50.000;7.360;2023-04-25T16:22:01;7.70;1.00
39401;DHT22;54391;50.000;7.360;2023-04-25T16:24:28;7.70;1.00
39401;DHT22;54391;50.000;7.360;2023-04-25T16:31:51;7.60;1.00
39401;DHT22;54391;50.000;7.360;2023-04-25T16:34:18;7.40;1.00
39401;DHT22;54391;50.000;7.360;2023-04-25T16:36:48;7.60;1.00
39401;DHT22;54391;50.000;7.360;2023-04-25T16:39:16;7.60;1.00
39401;DHT22;54391;50.000;7.360;2023-04-25T16:41:44;7.60;1.00
39401;DHT22;54391;50.000;7.360;2023-04-25T16:44:11;7.60;1.00
39401;DHT22;54391;50.000;7.360;2023-04-25T16:46:38;7.60;1.00
39401;DHT22;54391;50.000;7.360;2023-04-25T16:49:05;7.60;1.00
39401;DHT22;54391;50.000;7.360;2023-04-25T16:51:33;8.50;1.00
39401;DHT22;54391;50.000;7.360;2023-04-25T16:54:00;7.60;1.00
39401;DHT22;54391;50.000;7.360;2023-04-25T16:56:29;7.60;1.00
39401;DHT22;54391;50.000;7.360;2023-04-25T16:58:57;7.60;1.00
39401;DHT22;54391;50.000;7.360;2023-04-25T17:01:24;7.50;1.00
39401;DHT22;54391;50.000;7.360;2023-04-25T17:06:19;7.70;1.00
39401;DHT22;54391;50.000;7.360;2023-04-25T17:08:46;7.70;1.00
39401;DHT22;54391;50.000;7.360;2023-04-25T17:11:13;7.70;1.00
39401;DHT22;54391;50.000;7.360;2023-04-25T17:13:42;7.80;1.00
39401;DHT22;54391;50.000;7.360;2023-04-25T17:16:09;7.90;1.00
39401;DHT22;54391;50.000;7.360;2023-04-25T17:18:38;7.90;1.00
39401;DHT22;54391;50.000;7.360;2023-04-25T17:21:06;7.90;1.00
39401;DHT22;54391;50.000;7.360;2023-04-25T17:23:33;7.90;1.00
39401;DHT22;54391;50.000;7.360;2023-04-25T17:28:28;7.90;1.00
39401;DHT22;54391;50.000;7.360;2023-04-25T17:30:57;7.80;1.00
39401;DHT22;54391;50.000;7.360;2023-04-25T17:33:49;7.70;1.00
39401;DHT22;54391;50.000;7.360;2023-04-25T17:36:17;7.70;2.60
39401;DHT22;54391;50.000;7.360;2023-04-25T17:38:44;7.70;1.00
39401;DHT22;54391;50.000;7.360;2023-04-25T17:41:12;7.60;1.40
39401;DHT22;54391;50.000;7.360;2023-04-25T17:46:08;7.50;2.40
39401;DHT22;54391;50.000;7.360;2023-04-25T17:48:36;7.40;1.40
39401;DHT22;54391;50.000;7.360;2023-04-25T17:51:03;7.30;1.30
39401;DHT22;54391;50.000;7.360;2023-04-25T17:53:32;7.10;1.00
39401;DHT22;54391;50.000;7.360;2023-04-25T17:55:59;7.10;1.50
39401;DHT22;54391;50.000;7.360;2023-04-25T18:03:25;6.90;1.50
39401;DHT22;54391;50.000;7.360;2023-04-25T18:05:52;6.80;2.70
39401;DHT22;54391;50.000;7.360;2023-04-25T18:08:19;6.70;3.50
39401;DHT22;54391;50.000;7.360;2023-04-25T18:10:47;6.50;4.30
39401;DHT22;54391;50.000;7.360;2023-04-25T18:13:16;6.60;3.60
39401;DHT22;54391;50.000;7.360;2023-04-25T18:15:43;6.60;4.90
39401;DHT22;54391;50.000;7.360;2023-04-25T18:20:47;6.50;5.50
39401;DHT22;54391;50.000;7.360;2023-04-25T18:23:15;6.60;6.20
39401;DHT22;54391;50.000;7.360;2023-04-25T18:28:11;6.50;6.60
39401;DHT22;54391;50.000;7.360;2023-04-25T18:33:09;6.50;7.00
39401;DHT22;54391;50.000;7.360;2023-04-25T18:35:36;6.60;8.00
39401;DHT22;54391;50.000;7.360;2023-04-25T18:38:05;6.50;7.10
39401;DHT22;54391;50.000;7.360;2023-04-25T18:40:32;6.60;7.50
39401;DHT22;54391;50.000;7.360;2023-04-25T18:45:28;6.40;7.50
39401;DHT22;54391;50.000;7.360;2023-04-25T18:47:55;6.40;8.40
39401;DHT22;54391;50.000;7.360;2023-04-25T18:50:22;6.40;8.70
39401;DHT22;54391;50.000;7.360;2023-04-25T18:52:51;6.40;9.30
39401;DHT22;54391;50.000;7.360;2023-04-25T18:55:20;6.40;9.90
39401;DHT22;54391;50.000;7.360;2023-04-25T18:57:47;6.30;9.80